Time;durP1;ratioP1;P1;durP2;ratioP2;P2;SDS_P1;SDS_P2;PMS_P1;PMS_P2;Temp;Humidity;BMP_temperature;BMP_pressure;BME280_temperature;BME280_humidity;BME280_pressure;Samples;Min_cycle;Max_cycle;Signal;HPM_P1;HPM_P2
2024/01/26 00:01:31;;;;;;;6.88;4.13;;;7.50;99.90;;;;;;4946219;28;20136;-72
2024/01/26 00:03:59;;;;;;;7.70;3.88;;;7.50;99.90;;;;;;4946641;29;20308;-72
2024/01/26 00:06:25;;;;;;;4.15;2.88;;;7.50;99.90;;;;;;4946651;28;20027;-72
2024/01/26 00:08:51;;;;;;;5.82;2.97;;;7.60;99.90;;;;;;4948839;28;20027;-72
2024/01/26 00:11:18;;;;;;;3.95;2.85;;;7.60;99.90;;;;;;4940110;29;20102;-73
2024/01/26 00:13:43;;;;;;;3.92;2.92;;;7.60;99.90;;;;;;4946618;28;20130;-71
2024/01/26 00:16:09;;;;;;;4.18;2.85;;;7.70;99.90;;;;;;4949014;28;20058;-72
2024/01/26 00:18:40;;;;;;;4.90;3.22;;;7.70;99.90;;;;;;4946426;29;20242;-72
2024/01/26 00:21:06;;;;;;;5.70;3.33;;;7.70;99.90;;;;;;4948630;29;20614;-71
2024/01/26 00:23:32;;;;;;;3.95;2.83;;;7.70;99.90;;;;;;4949225;28;20108;-72
2024/01/26 00:25:57;;;;;;;5.22;3.28;;;7.70;99.90;;;;;;4930953;29;20134;-72
2024/01/26 00:28:23;;;;;;;3.47;2.83;;;7.70;99.90;;;;;;4971513;29;20481;-72
2024/01/26 00:30:49;;;;;;;4.45;3.08;;;7.70;99.90;;;;;;4970371;29;20020;-71
2024/01/26 00:33:14;;;;;;;4.05;2.92;;;7.70;99.90;;;;;;4968746;28;20047;-72
2024/01/26 00:35:40;;;;;;;3.67;2.80;;;7.60;99.90;;;;;;4969202;28;20031;-73
2024/01/26 00:38:05;;;;;;;5.20;2.72;;;7.50;99.90;;;;;;4969536;28;20117;-73
2024/01/26 00:40:31;;;;;;;5.07;3.05;;;7.50;99.90;;;;;;4970387;28;20051;-74
2024/01/26 00:42:57;;;;;;;6.80;3.00;;;7.50;99.90;;;;;;4968879;28;20038;-72
2024/01/26 00:45:23;;;;;;;4.85;2.90;;;7.40;99.90;;;;;;4954714;28;20091;-74
2024/01/26 00:47:48;;;;;;;6.53;3.20;;;7.40;99.90;;;;;;4967663;28;20075;-73
2024/01/26 00:50:14;;;;;;;4.78;2.83;;;7.40;99.90;;;;;;4970501;28;20054;-71
2024/01/26 00:52:40;;;;;;;6.95;3.42;;;7.40;99.90;;;;;;4968294;28;20061;-72
2024/01/26 00:55:06;;;;;;;5.53;3.20;;;7.40;99.90;;;;;;4968605;28;20038;-72
2024/01/26 00:57:31;;;;;;;5.20;3.03;;;7.40;99.90;;;;;;4968927;28;20030;-75
2024/01/26 00:59:59;;;;;;;5.60;4.03;;;7.40;99.90;;;;;;4963158;28;20031;-72
2024/01/26 01:02:25;;;;;;;3.83;3.30;;;7.40;99.90;;;;;;4955657;29;20131;-74
2024/01/26 01:04:50;;;;;;;4.25;3.30;;;7.40;99.90;;;;;;4966659;29;20430;-72
2024/01/26 01:07:16;;;;;;;5.55;3.47;;;7.40;99.90;;;;;;4952909;28;20400;-72
2024/01/26 01:09:42;;;;;;;5.90;3.40;;;7.40;99.90;;;;;;4951527;29;20470;-72
2024/01/26 01:12:07;;;;;;;4.45;3.33;;;7.40;99.90;;;;;;4945379;28;20106;-72
2024/01/26 01:14:35;;;;;;;9.02;3.30;;;7.40;99.90;;;;;;4950098;28;20031;-73
2024/01/26 01:17:01;;;;;;;5.30;3.70;;;7.40;99.90;;;;;;4950883;28;20028;-71
2024/01/26 01:19:27;;;;;;;7.80;4.30;;;7.40;99.90;;;;;;4949250;28;20555;-72
2024/01/26 01:21:53;;;;;;;6.22;4.22;;;7.40;99.90;;;;;;4950942;28;20023;-71
2024/01/26 01:24:19;;;;;;;6.80;4.15;;;7.40;99.90;;;;;;4931411;29;20417;-72
2024/01/26 01:26:44;;;;;;;7.78;4.25;;;7.40;99.90;;;;;;4948967;29;20398;-73
2024/01/26 01:29:10;;;;;;;8.73;4.63;;;7.40;99.90;;;;;;4946794;28;20023;-71
2024/01/26 01:31:36;;;;;;;15.43;6.15;;;7.40;99.90;;;;;;4946651;29;20466;-71
2024/01/26 01:34:01;;;;;;;15.60;7.07;;;7.40;99.90;;;;;;4935729;29;20028;-72
2024/01/26 01:36:27;;;;;;;10.05;4.57;;;7.30;99.90;;;;;;4945777;28;20019;-72
2024/01/26 01:38:52;;;;;;;10.50;5.55;;;7.40;99.90;;;;;;4933170;29;20079;-71
2024/01/26 01:41:18;;;;;;;8.48;4.70;;;7.30;99.90;;;;;;4947927;28;20027;-72
2024/01/26 01:43:52;;;;;;;9.32;4.95;;;7.30;99.90;;;;;;4942966;28;20393;-73
2024/01/26 01:46:18;;;;;;;7.80;5.22;;;7.30;99.90;;;;;;4942539;29;20086;-75
2024/01/26 01:48:43;;;;;;;8.15;5.60;;;7.30;99.90;;;;;;4944992;29;20286;-73
2024/01/26 01:51:09;;;;;;;7.40;4.72;;;7.30;99.90;;;;;;4942512;29;20035;-73
2024/01/26 01:53:37;;;;;;;5.15;3.85;;;7.30;99.90;;;;;;4941819;28;20031;-72
2024/01/26 01:56:04;;;;;;;5.17;3.80;;;7.30;99.90;;;;;;4929311;29;20034;-72
2024/01/26 01:58:33;;;;;;;10.07;5.20;;;7.30;99.90;;;;;;4942813;29;20028;-72
2024/01/26 02:00:58;;;;;;;5.28;3.85;;;7.30;99.90;;;;;;4944839;28;20279;-73
2024/01/26 02:03:24;;;;;;;5.88;3.83;;;7.30;99.90;;;;;;4945451;28;20039;-71
2024/01/26 02:05:50;;;;;;;7.70;4.00;;;7.30;99.90;;;;;;4951549;29;20031;-71
2024/01/26 02:08:15;;;;;;;5.47;3.78;;;7.30;99.90;;;;;;4949851;28;20040;-73
2024/01/26 02:10:41;;;;;;;8.48;4.43;;;7.30;99.90;;;;;;4959420;23;20130;-35
2024/01/26 02:13:06;;;;;;;7.57;4.50;;;7.40;99.90;;;;;;4924641;29;20066;-34
2024/01/26 02:15:32;;;;;;;5.95;3.75;;;7.40;99.90;;;;;;4923993;29;20024;-33
2024/01/26 02:17:58;;;;;;;6.30;3.70;;;7.40;99.90;;;;;;4922140;29;20577;-36
2024/01/26 02:20:24;;;;;;;6.95;4.25;;;7.40;99.90;;;;;;4929620;29;20048;-32
2024/01/26 02:22:49;;;;;;;7.80;4.57;;;7.40;99.90;;;;;;4924341;29;20035;-38
2024/01/26 02:25:15;;;;;;;7.45;4.35;;;7.40;99.90;;;;;;4927482;29;20059;-37
2024/01/26 02:27:40;;;;;;;8.07;4.10;;;7.40;99.90;;;;;;4926050;29;20065;-37
2024/01/26 02:30:06;;;;;;;8.80;4.05;;;7.40;99.90;;;;;;4928888;29;20028;-40
2024/01/26 02:32:32;;;;;;;8.38;4.90;;;7.40;99.90;;;;;;4925309;29;20039;-38
2024/01/26 02:34:58;;;;;;;7.25;4.75;;;7.50;99.90;;;;;;4923221;29;20035;-38
2024/01/26 02:37:23;;;;;;;7.57;4.43;;;7.50;99.90;;;;;;4913781;29;20031;-32
2024/01/26 02:39:49;;;;;;;8.20;4.70;;;7.50;99.90;;;;;;4921669;29;20042;-40
2024/01/26 02:42:14;;;;;;;8.00;4.53;;;7.50;99.90;;;;;;4925779;29;20038;-40
2024/01/26 02:44:40;;;;;;;8.82;4.05;;;7.50;99.90;;;;;;4925856;29;20032;-37
2024/01/26 02:47:06;;;;;;;10.35;4.80;;;7.50;99.90;;;;;;4921122;29;20111;-39
2024/01/26 02:49:32;;;;;;;11.00;5.45;;;7.50;99.90;;;;;;4926079;29;20735;-37
2024/01/26 02:51:57;;;;;;;7.32;4.18;;;7.60;99.90;;;;;;4907246;29;20040;-33
2024/01/26 02:54:23;;;;;;;8.65;4.70;;;7.60;99.90;;;;;;4920412;29;20032;-32
2024/01/26 02:56:48;;;;;;;9.18;4.80;;;7.60;99.90;;;;;;4926530;29;20071;-30
2024/01/26 02:59:14;;;;;;;9.30;4.85;;;7.60;99.90;;;;;;4921807;29;21201;-30
2024/01/26 03:01:40;;;;;;;9.23;4.72;;;7.60;99.90;;;;;;4917226;29;20044;-32
2024/01/26 03:04:05;;;;;;;9.05;5.45;;;7.70;99.90;;;;;;4924124;29;20024;-32
2024/01/26 03:06:31;;;;;;;6.07;3.83;;;7.70;99.90;;;;;;4928515;29;20398;-33
2024/01/26 03:08:56;;;;;;;8.85;4.70;;;7.70;99.90;;;;;;4925616;29;20078;-31
2024/01/26 03:11:22;;;;;;;8.02;4.38;;;7.70;99.90;;;;;;4930011;29;20056;-31
2024/01/26 03:13:47;;;;;;;7.28;4.57;;;7.70;99.90;;;;;;4923248;29;20389;-32
2024/01/26 03:16:13;;;;;;;4.30;2.90;;;7.80;99.90;;;;;;4924462;29;20052;-31
2024/01/26 03:18:39;;;;;;;8.40;4.53;;;7.80;99.90;;;;;;4918400;29;20492;-30
2024/01/26 03:21:04;;;;;;;5.63;3.38;;;7.80;99.90;;;;;;4912143;29;20027;-32
2024/01/26 03:23:30;;;;;;;6.63;4.13;;;7.80;99.90;;;;;;4924334;29;20429;-31
2024/01/26 03:25:55;;;;;;;5.90;3.97;;;7.80;99.90;;;;;;4907979;29;20070;-36
2024/01/26 03:28:21;;;;;;;7.80;4.38;;;7.90;99.90;;;;;;4920862;29;20094;-31
2024/01/26 03:30:46;;;;;;;7.20;4.05;;;7.90;99.90;;;;;;4923540;29;20051;-38
2024/01/26 03:33:12;;;;;;;5.97;3.65;;;7.90;99.90;;;;;;4923783;29;20038;-37
2024/01/26 03:35:38;;;;;;;6.28;4.38;;;7.90;99.90;;;;;;4921058;29;20428;-37
2024/01/26 03:38:03;;;;;;;4.45;3.25;;;7.90;99.90;;;;;;4921340;29;20137;-39
2024/01/26 03:40:29;;;;;;;5.38;3.47;;;7.90;99.90;;;;;;4925108;29;20039;-38
2024/01/26 03:42:54;;;;;;;5.75;3.90;;;7.90;99.90;;;;;;4921451;29;20107;-39
2024/01/26 03:45:20;;;;;;;7.57;3.90;;;7.90;99.90;;;;;;4923290;29;20401;-39
2024/01/26 03:47:46;;;;;;;6.53;3.40;;;7.80;99.90;;;;;;4922926;29;20031;-39
2024/01/26 03:50:12;;;;;;;7.38;3.72;;;7.80;99.90;;;;;;4919597;29;20620;-38
2024/01/26 03:52:37;;;;;;;5.10;3.55;;;7.80;99.90;;;;;;4914260;29;20032;-38
2024/01/26 03:55:06;;;;;;;6.60;3.70;;;7.80;99.90;;;;;;4923062;29;20032;-37
2024/01/26 03:57:33;;;;;;;6.18;3.38;;;7.80;99.90;;;;;;4922002;29;20024;-39
2024/01/26 03:59:59;;;;;;;4.93;3.25;;;7.80;99.90;;;;;;4925126;29;20036;-32
2024/01/26 04:02:24;;;;;;;6.32;3.08;;;7.80;99.90;;;;;;4910830;29;20087;-33
2024/01/26 04:04:50;;;;;;;4.88;3.20;;;7.80;99.90;;;;;;4923819;29;20385;-31
2024/01/26 04:07:16;;;;;;;6.95;3.60;;;7.80;99.90;;;;;;4922857;29;20032;-34
2024/01/26 04:09:41;;;;;;;5.32;3.03;;;7.80;99.90;;;;;;4896855;29;20036;-31
2024/01/26 04:12:08;;;;;;;7.22;3.25;;;7.80;99.90;;;;;;4916989;29;20068;-33
2024/01/26 04:14:34;;;;;;;4.43;2.95;;;7.70;99.90;;;;;;4923485;29;20028;-33
2024/01/26 04:16:59;;;;;;;6.00;3.55;;;7.70;99.90;;;;;;4922743;29;20098;-30
2024/01/26 04:19:25;;;;;;;5.75;3.15;;;7.70;99.90;;;;;;4921201;29;20574;-32
2024/01/26 04:21:52;;;;;;;4.03;2.72;;;7.80;99.90;;;;;;4925237;29;20044;-31
2024/01/26 04:24:18;;;;;;;5.95;3.15;;;7.70;99.90;;;;;;4927787;29;20494;-33
2024/01/26 04:26:43;;;;;;;5.13;3.30;;;7.70;99.90;;;;;;4920039;29;20039;-30
2024/01/26 04:29:09;;;;;;;4.45;2.67;;;7.70;99.90;;;;;;4927033;29;20378;-31
2024/01/26 04:31:43;;;;;;;5.03;3.00;;;7.70;99.90;;;;;;4924734;29;20103;-31
2024/01/26 04:34:09;;;;;;;4.80;2.72;;;7.70;99.90;;;;;;4924192;29;20391;-31
2024/01/26 04:36:35;;;;;;;4.63;2.75;;;7.70;99.90;;;;;;4923498;29;20415;-31
2024/01/26 04:39:02;;;;;;;3.17;2.28;;;7.70;99.90;;;;;;4921642;29;20175;-33
2024/01/26 04:41:28;;;;;;;5.88;2.88;;;7.70;99.90;;;;;;4924900;29;20189;-32
2024/01/26 04:43:55;;;;;;;3.58;2.50;;;7.70;99.90;;;;;;4925155;29;20039;-33
2024/01/26 04:46:21;;;;;;;4.95;2.97;;;7.60;99.90;;;;;;4916992;29;20063;-32
2024/01/26 04:48:46;;;;;;;3.15;2.50;;;7.60;99.90;;;;;;4923186;29;20059;-32
2024/01/26 04:51:12;;;;;;;3.38;2.45;;;7.60;99.90;;;;;;4921164;29;20028;-32
2024/01/26 04:53:37;;;;;;;4.00;2.80;;;7.60;99.90;;;;;;4924739;29;20179;-34
2024/01/26 04:56:03;;;;;;;3.05;2.70;;;7.60;99.90;;;;;;4920094;29;20039;-33
2024/01/26 04:58:29;;;;;;;3.55;2.65;;;7.60;99.90;;;;;;4923811;29;20047;-32
2024/01/26 05:00:54;;;;;;;4.57;2.83;;;7.60;99.90;;;;;;4925244;29;20092;-35
2024/01/26 05:03:20;;;;;;;5.40;3.10;;;7.60;99.90;;;;;;4921914;29;20031;-32
2024/01/26 05:05:45;;;;;;;4.90;3.08;;;7.60;99.90;;;;;;4918401;29;20036;-32
2024/01/26 05:08:11;;;;;;;4.55;3.00;;;7.60;99.90;;;;;;4920803;29;20040;-33
2024/01/26 05:10:37;;;;;;;5.22;2.88;;;7.60;99.90;;;;;;4917539;29;20052;-40
2024/01/26 05:13:02;;;;;;;5.78;3.72;;;7.60;99.90;;;;;;4919215;29;20039;-38
2024/01/26 05:15:28;;;;;;;6.55;4.18;;;7.70;99.90;;;;;;4925916;29;20043;-39
2024/01/26 05:17:54;;;;;;;7.57;4.30;;;7.60;99.90;;;;;;4922174;29;20036;-40
2024/01/26 05:20:19;;;;;;;7.63;4.50;;;7.60;99.90;;;;;;4925711;29;20064;-40
2024/01/26 05:22:45;;;;;;;6.68;4.72;;;7.60;99.90;;;;;;4923143;29;20110;-39
2024/01/26 05:25:11;;;;;;;7.03;4.03;;;7.60;99.90;;;;;;4924683;29;20481;-41
2024/01/26 05:27:36;;;;;;;5.95;4.20;;;7.60;99.90;;;;;;4921099;29;20032;-40
2024/01/26 05:30:02;;;;;;;4.65;3.67;;;7.60;99.90;;;;;;4923622;29;20394;-40
2024/01/26 05:32:28;;;;;;;5.65;3.28;;;7.70;99.90;;;;;;4920371;29;20391;-39
2024/01/26 05:34:54;;;;;;;5.40;3.35;;;7.70;99.90;;;;;;4924028;29;20100;-40
2024/01/26 05:37:19;;;;;;;6.75;4.07;;;7.60;99.90;;;;;;4923644;29;20111;-40
2024/01/26 05:39:45;;;;;;;6.93;4.15;;;7.60;99.90;;;;;;4927473;29;20027;-40
2024/01/26 05:42:10;;;;;;;6.63;4.25;;;7.60;99.90;;;;;;4918857;29;20060;-42
2024/01/26 05:44:36;;;;;;;6.25;3.85;;;7.60;99.90;;;;;;4917656;29;20031;-39
2024/01/26 05:47:01;;;;;;;5.65;3.67;;;7.60;99.90;;;;;;4918023;29;20032;-40
2024/01/26 05:49:27;;;;;;;5.75;3.80;;;7.70;99.90;;;;;;4923168;29;20033;-39
2024/01/26 05:51:53;;;;;;;5.80;4.00;;;7.60;99.90;;;;;;4903959;29;20099;-39
2024/01/26 05:54:18;;;;;;;4.82;3.80;;;7.60;99.90;;;;;;4927257;29;20122;-40
2024/01/26 05:56:44;;;;;;;4.20;2.92;;;7.60;99.90;;;;;;4928216;29;20726;-41
2024/01/26 05:59:09;;;;;;;4.90;3.30;;;7.60;99.90;;;;;;4926053;29;20208;-38
2024/01/26 06:01:36;;;;;;;3.60;2.92;;;7.60;99.90;;;;;;4919122;29;20494;-40
2024/01/26 06:04:02;;;;;;;4.45;3.10;;;7.60;99.90;;;;;;4924131;29;20032;-39
2024/01/26 06:06:28;;;;;;;5.60;3.40;;;7.60;99.90;;;;;;4924803;29;20090;-38
2024/01/26 06:08:53;;;;;;;4.07;3.08;;;7.60;99.90;;;;;;4907872;29;20043;-40
2024/01/26 06:11:20;;;;;;;3.88;2.88;;;7.50;99.90;;;;;;4925967;29;20119;-38
2024/01/26 06:13:46;;;;;;;3.45;2.45;;;7.50;99.90;;;;;;4921889;29;20032;-41
2024/01/26 06:16:15;;;;;;;3.83;3.42;;;7.50;99.90;;;;;;4926417;29;20037;-41
2024/01/26 06:18:43;;;;;;;3.83;2.67;;;7.50;99.90;;;;;;4927377;29;20801;-37
2024/01/26 06:21:09;;;;;;;;;;;7.50;99.90;;;;;;4920413;29;20095;-39
2024/01/26 06:23:35;;;;;;;3.22;2.60;;;7.50;99.90;;;;;;4926287;29;20539;-38
2024/01/26 06:26:01;;;;;;;3.20;2.65;;;7.50;99.90;;;;;;4924122;29;20123;-38
2024/01/26 06:28:26;;;;;;;3.58;2.70;;;7.50;99.90;;;;;;4920565;29;20024;-38
2024/01/26 06:30:52;;;;;;;4.20;2.58;;;7.50;99.90;;;;;;4924186;29;20031;-39
2024/01/26 06:33:17;;;;;;;3.78;2.63;;;7.50;99.90;;;;;;4927790;29;20123;-38
2024/01/26 06:35:43;;;;;;;2.80;2.53;;;7.50;99.90;;;;;;4921508;29;20657;-37
2024/01/26 06:38:09;;;;;;;3.53;2.30;;;7.50;99.90;;;;;;4918925;29;20138;-39
2024/01/26 06:40:34;;;;;;;2.05;1.80;;;7.50;99.90;;;;;;4922954;29;20182;-39
2024/01/26 06:43:06;;;;;;;2.03;1.90;;;7.50;99.90;;;;;;4920607;29;20032;-38
2024/01/26 06:45:32;;;;;;;4.90;2.50;;;7.50;99.90;;;;;;4929906;29;20032;-38
2024/01/26 06:47:58;;;;;;;3.88;2.10;;;7.50;99.90;;;;;;4921175;29;20032;-38
2024/01/26 06:50:23;;;;;;;3.17;2.20;;;7.50;99.90;;;;;;4922906;29;20039;-39
2024/01/26 06:52:49;;;;;;;3.00;2.55;;;7.50;99.90;;;;;;4921524;29;20115;-40
2024/01/26 06:55:15;;;;;;;2.58;2.00;;;7.50;99.90;;;;;;4924820;29;20751;-40
2024/01/26 06:57:40;;;;;;;2.50;2.10;;;7.50;99.90;;;;;;4926418;29;20904;-39
2024/01/26 07:00:07;;;;;;;2.42;2.08;;;7.60;99.90;;;;;;4925279;29;20028;-41
2024/01/26 07:02:33;;;;;;;4.57;1.75;;;7.50;99.90;;;;;;4920590;29;20040;-40
2024/01/26 07:04:59;;;;;;;5.82;2.17;;;7.50;99.90;;;;;;4927031;29;20122;-36
2024/01/26 07:07:25;;;;;;;3.88;1.80;;;7.60;99.90;;;;;;4923858;29;20075;-32
2024/01/26 07:09:50;;;;;;;3.08;1.95;;;7.50;99.90;;;;;;4920438;29;20016;-40
2024/01/26 07:12:16;;;;;;;3.10;1.80;;;7.60;99.90;;;;;;4919731;29;20058;-42
2024/01/26 07:14:41;;;;;;;3.65;2.40;;;7.60;99.90;;;;;;4925719;29;20035;-37
2024/01/26 07:17:07;;;;;;;2.47;1.80;;;7.60;99.90;;;;;;4922904;29;20023;-39
2024/01/26 07:19:33;;;;;;;1.95;1.75;;;7.60;99.90;;;;;;4920789;29;20112;-41
2024/01/26 07:21:58;;;;;;;1.70;1.60;;;7.70;99.90;;;;;;4927024;29;20035;-39
2024/01/26 07:24:24;;;;;;;1.90;1.80;;;7.70;99.90;;;;;;4926299;29;20054;-37
2024/01/26 07:26:49;;;;;;;1.70;1.50;;;7.70;99.90;;;;;;4930133;29;20101;-37
2024/01/26 07:29:15;;;;;;;1.73;1.63;;;7.70;99.90;;;;;;4927251;29;20032;-40
2024/01/26 07:31:41;;;;;;;2.83;1.88;;;7.70;99.90;;;;;;4922999;29;20502;-32
2024/01/26 07:34:07;;;;;;;1.67;1.58;;;7.70;99.90;;;;;;4919876;29;20035;-32
2024/01/26 07:36:36;;;;;;;1.30;1.20;;;7.70;99.90;;;;;;4916929;29;20433;-33
2024/01/26 07:39:03;;;;;;;2.22;1.60;;;7.80;99.90;;;;;;4918104;29;20056;-31
2024/01/26 07:41:28;;;;;;;1.83;1.33;;;7.80;99.90;;;;;;4917049;29;20044;-33
2024/01/26 07:43:54;;;;;;;1.85;1.52;;;7.80;99.90;;;;;;4917309;29;20478;-31
2024/01/26 07:46:19;;;;;;;2.05;1.50;;;7.80;99.90;;;;;;4919461;29;20497;-32
2024/01/26 07:48:45;;;;;;;3.67;1.60;;;7.80;99.90;;;;;;4919856;29;20386;-31
2024/01/26 07:51:11;;;;;;;1.50;1.40;;;7.80;99.90;;;;;;4920372;29;20024;-33
2024/01/26 07:53:36;;;;;;;1.35;1.10;;;7.80;99.90;;;;;;4928056;29;20107;-31
2024/01/26 07:56:02;;;;;;;1.60;1.50;;;7.80;99.90;;;;;;4920112;29;20035;-33
2024/01/26 07:58:27;;;;;;;1.90;1.27;;;7.90;99.90;;;;;;4923738;29;20114;-33
2024/01/26 08:00:53;;;;;;;1.98;1.70;;;7.90;99.90;;;;;;4918975;29;20062;-31
2024/01/26 08:03:19;;;;;;;1.70;1.40;;;8.00;99.90;;;;;;4922335;29;20028;-31
2024/01/26 08:05:44;;;;;;;2.63;1.45;;;7.90;99.90;;;;;;4926545;29;20035;-32
2024/01/26 08:08:10;;;;;;;1.60;1.38;;;7.90;99.90;;;;;;4908182;29;20254;-31
2024/01/26 08:10:35;;;;;;;2.63;1.52;;;8.00;99.90;;;;;;4920472;29;20119;-33
2024/01/26 08:13:01;;;;;;;1.95;1.55;;;8.00;99.90;;;;;;4911407;29;20083;-32
2024/01/26 08:15:27;;;;;;;1.50;1.40;;;8.00;99.90;;;;;;4924532;29;20024;-31
2024/01/26 08:17:52;;;;;;;2.70;1.95;;;8.00;99.90;;;;;;4921533;29;20059;-31
2024/01/26 08:20:18;;;;;;;1.23;1.15;;;8.00;99.90;;;;;;4913026;29;20028;-32
2024/01/26 08:22:44;;;;;;;2.80;1.63;;;8.00;99.90;;;;;;4920507;29;20585;-33
2024/01/26 08:25:10;;;;;;;1.58;1.45;;;8.10;99.90;;;;;;4921547;29;20024;-32
2024/01/26 08:27:36;;;;;;;1.65;1.50;;;8.20;99.90;;;;;;4923600;29;20043;-31
2024/01/26 08:30:02;;;;;;;1.52;1.30;;;8.20;99.90;;;;;;4919356;29;20024;-32
2024/01/26 08:32:27;;;;;;;2.35;1.30;;;8.30;99.90;;;;;;4921390;29;20401;-32
2024/01/26 08:34:53;;;;;;;1.85;1.35;;;8.30;99.90;;;;;;4926112;29;20401;-34
2024/01/26 08:37:19;;;;;;;1.58;1.48;;;8.30;99.90;;;;;;4921904;29;20035;-32
2024/01/26 08:39:45;;;;;;;3.70;1.50;;;8.30;99.90;;;;;;4917396;29;20741;-37
2024/01/26 08:42:11;;;;;;;1.35;0.95;;;8.40;99.90;;;;;;4923747;29;20059;-32
2024/01/26 08:44:37;;;;;;;1.33;1.10;;;8.40;99.90;;;;;;4924473;29;20066;-30
2024/01/26 08:47:02;;;;;;;1.45;1.35;;;8.50;99.90;;;;;;4919439;29;20069;-32
2024/01/26 08:49:28;;;;;;;1.35;1.25;;;8.50;99.90;;;;;;4919788;29;20111;-31
2024/01/26 08:51:54;;;;;;;2.45;1.40;;;8.60;99.90;;;;;;4926029;29;20509;-33
2024/01/26 08:54:20;;;;;;;1.40;1.30;;;8.60;99.90;;;;;;4922904;29;20060;-31
2024/01/26 08:56:45;;;;;;;1.50;1.15;;;8.70;99.90;;;;;;4919423;29;20052;-33
2024/01/26 08:59:11;;;;;;;2.50;1.30;;;8.70;99.90;;;;;;4915112;29;20083;-32
2024/01/26 09:01:38;;;;;;;3.63;1.10;;;8.70;99.90;;;;;;4919456;29;20054;-31
2024/01/26 09:04:08;;;;;;;1.23;1.10;;;8.70;99.90;;;;;;4918745;29;20087;-31
2024/01/26 09:06:34;;;;;;;1.48;0.98;;;8.70;99.90;;;;;;4904600;29;20059;-33
2024/01/26 09:09:00;;;;;;;1.35;1.27;;;8.70;99.90;;;;;;4921622;29;20732;-31
2024/01/26 09:11:26;;;;;;;1.20;1.10;;;8.80;99.90;;;;;;4917694;29;20047;-36
2024/01/26 09:13:51;;;;;;;1.60;1.50;;;8.80;99.90;;;;;;4925707;29;20042;-32
2024/01/26 09:16:17;;;;;;;0.98;0.95;;;8.90;99.90;;;;;;4921531;29;20082;-32
2024/01/26 09:18:43;;;;;;;1.77;1.02;;;9.00;99.90;;;;;;4920830;29;20709;-31
2024/01/26 09:21:11;;;;;;;1.10;1.00;;;9.00;99.90;;;;;;4917465;29;20123;-39
2024/01/26 09:23:38;;;;;;;2.25;1.20;;;9.00;99.90;;;;;;4925065;29;20043;-39
2024/01/26 09:26:03;;;;;;;1.35;1.05;;;9.00;99.90;;;;;;4918247;29;20051;-40
2024/01/26 09:28:29;;;;;;;1.30;1.13;;;9.10;99.90;;;;;;4919616;29;20054;-38
2024/01/26 09:30:55;;;;;;;0.90;0.90;;;9.10;99.90;;;;;;4916268;29;20043;-35
2024/01/26 09:33:21;;;;;;;1.20;1.10;;;9.20;99.90;;;;;;4924524;29;20485;-39
2024/01/26 09:35:47;;;;;;;1.02;1.00;;;9.20;99.90;;;;;;4919264;29;20111;-39
2024/01/26 09:38:12;;;;;;;1.15;1.05;;;9.20;99.90;;;;;;4922295;29;20411;-40
2024/01/26 09:40:39;;;;;;;1.02;0.85;;;9.20;99.90;;;;;;4916776;29;20083;-39
2024/01/26 09:43:07;;;;;;;1.27;0.95;;;9.20;99.90;;;;;;4920617;29;20040;-37
2024/01/26 09:45:33;;;;;;;;;;;9.20;99.90;;;;;;4921594;29;20367;-38
2024/01/26 09:47:59;;;;;;;1.20;1.10;;;9.30;99.90;;;;;;4921661;29;19918;-38
2024/01/26 09:50:26;;;;;;;0.95;0.90;;;9.30;99.90;;;;;;4919196;29;20423;-34
2024/01/26 09:52:52;;;;;;;0.85;0.70;;;9.30;99.90;;;;;;4923616;29;20119;-33
2024/01/26 09:55:20;;;;;;;1.73;1.10;;;9.40;99.90;;;;;;4920345;29;20062;-32
2024/01/26 09:57:47;;;;;;;1.73;1.10;;;9.40;99.90;;;;;;4924649;29;20058;-32
2024/01/26 10:00:14;;;;;;;0.90;0.90;;;9.40;99.90;;;;;;4916133;29;20043;-32
2024/01/26 10:02:42;;;;;;;1.27;1.10;;;9.50;99.90;;;;;;4920880;29;20046;-35
2024/01/26 10:05:08;;;;;;;1.00;0.80;;;9.50;99.90;;;;;;4920883;29;20035;-32
2024/01/26 10:07:33;;;;;;;1.27;0.90;;;9.60;99.90;;;;;;4925532;29;20704;-32
2024/01/26 10:09:59;;;;;;;0.77;0.77;;;9.60;99.90;;;;;;4916789;29;20024;-32
2024/01/26 10:12:25;;;;;;;1.50;0.80;;;9.70;99.90;;;;;;4918783;29;20043;-38
2024/01/26 10:15:05;;;;;;;1.00;0.80;;;9.70;99.90;;;;;;4922437;29;20035;-33
2024/01/26 10:17:30;;;;;;;0.82;0.82;;;9.70;99.90;;;;;;4904521;29;20028;-33
2024/01/26 10:20:07;;;;;;;1.13;1.05;;;9.70;99.90;;;;;;4919005;29;20434;-39
2024/01/26 10:22:37;;;;;;;1.10;1.10;;;9.80;99.90;;;;;;4898898;29;20039;-37
2024/01/26 10:25:04;;;;;;;1.17;1.17;;;9.80;99.90;;;;;;4921707;29;20022;-34
2024/01/26 10:27:30;;;;;;;1.20;1.10;;;9.80;99.90;;;;;;4922155;29;20028;-34
2024/01/26 10:29:55;;;;;;;1.30;1.00;;;9.80;99.90;;;;;;4923831;29;20042;-35
2024/01/26 10:32:26;;;;;;;1.38;1.27;;;9.80;99.90;;;;;;4924054;29;20036;-33
2024/01/26 10:34:56;;;;;;;2.08;1.20;;;9.80;99.90;;;;;;4926800;29;20035;-32
2024/01/26 10:37:27;;;;;;;0.85;0.85;;;9.80;99.90;;;;;;4927556;29;20046;-32
2024/01/26 10:39:55;;;;;;;1.20;1.10;;;9.90;99.90;;;;;;4924192;29;20100;-32
2024/01/26 10:42:21;;;;;;;2.83;1.17;;;9.90;99.90;;;;;;4923539;29;20026;-33
2024/01/26 10:44:49;;;;;;;1.88;1.02;;;10.00;99.90;;;;;;4922260;29;20260;-32
2024/01/26 10:47:16;;;;;;;1.27;1.10;;;10.10;99.90;;;;;;4928861;29;20118;-32
2024/01/26 10:49:43;;;;;;;1.10;1.00;;;10.20;99.90;;;;;;4929249;29;20779;-31
2024/01/26 10:52:10;;;;;;;1.00;1.00;;;10.30;99.90;;;;;;4926566;29;20046;-32
2024/01/26 10:54:37;;;;;;;1.00;1.00;;;10.30;99.90;;;;;;4909434;29;20024;-33
2024/01/26 10:57:03;;;;;;;1.00;1.00;;;10.40;99.90;;;;;;4925483;29;20123;-32
2024/01/26 10:59:29;;;;;;;0.80;0.80;;;10.40;99.90;;;;;;4924077;29;20027;-31
2024/01/26 11:01:55;;;;;;;2.38;0.90;;;10.60;99.90;;;;;;4922987;29;20043;-39
2024/01/26 11:04:21;;;;;;;1.25;1.15;;;10.70;99.90;;;;;;4927280;29;20401;-41
2024/01/26 11:06:47;;;;;;;0.77;0.75;;;10.80;99.90;;;;;;4926190;29;20030;-40
2024/01/26 11:09:15;;;;;;;0.90;0.90;;;10.70;99.90;;;;;;4906564;29;20060;-41
2024/01/26 11:11:41;;;;;;;;;;;10.70;99.90;;;;;;4925910;29;20040;-42
2024/01/26 11:14:15;;;;;;;0.90;0.90;;;10.80;99.90;;;;;;4926044;29;19922;-39
2024/01/26 11:16:43;;;;;;;1.33;1.10;;;10.80;99.90;;;;;;4924565;29;20043;-38
2024/01/26 11:19:20;;;;;;;1.80;1.00;;;10.90;99.90;;;;;;4923468;29;20425;-40
2024/01/26 11:21:46;;;;;;;1.02;0.90;;;10.90;99.90;;;;;;4926753;29;20039;-39
2024/01/26 11:24:12;;;;;;;1.60;0.98;;;10.80;99.90;;;;;;4923578;29;20040;-40
2024/01/26 11:26:38;;;;;;;1.45;1.15;;;10.70;99.90;;;;;;4916180;29;20028;-40
2024/01/26 11:29:14;;;;;;;1.15;1.05;;;10.60;99.90;;;;;;4925167;29;20540;-40
2024/01/26 11:31:42;;;;;;;0.98;0.93;;;10.50;99.90;;;;;;4908789;29;20032;-35
2024/01/26 11:34:20;;;;;;;1.77;0.50;;;10.50;99.90;;;;;;4926919;29;20039;-40
2024/01/26 11:36:46;;;;;;;0.90;0.90;;;10.40;99.90;;;;;;4918840;29;20118;-40
2024/01/26 11:39:16;;;;;;;0.82;0.82;;;10.40;99.90;;;;;;4924175;29;20446;-40
2024/01/26 11:41:48;;;;;;;1.52;1.20;;;10.40;99.90;;;;;;4923658;29;20024;-41
2024/01/26 11:44:20;;;;;;;1.35;0.90;;;10.40;99.90;;;;;;4900714;29;20070;-41
2024/01/26 11:46:47;;;;;;;1.10;1.10;;;10.40;99.90;;;;;;4899137;29;20135;-40
2024/01/26 11:49:13;;;;;;;1.02;0.95;;;10.30;99.90;;;;;;4892899;29;20541;-41
2024/01/26 11:51:39;;;;;;;0.90;0.90;;;10.30;99.90;;;;;;4907930;29;20457;-38
2024/01/26 11:54:06;;;;;;;1.00;1.00;;;10.30;99.90;;;;;;4909550;29;20023;-39
2024/01/26 11:56:32;;;;;;;1.45;1.13;;;10.30;99.90;;;;;;4919540;29;20044;-39
2024/01/26 11:58:59;;;;;;;1.30;1.20;;;10.40;99.90;;;;;;4924568;29;20106;-40
2024/01/26 12:01:24;;;;;;;0.93;0.93;;;10.40;99.90;;;;;;4918857;29;20059;-39
2024/01/26 12:03:53;;;;;;;0.90;0.90;;;10.40;99.90;;;;;;4919315;29;20500;-41
2024/01/26 12:06:19;;;;;;;1.00;1.00;;;10.40;99.90;;;;;;4925832;29;20501;-39
2024/01/26 12:08:46;;;;;;;0.93;0.93;;;10.40;99.90;;;;;;4928601;29;20019;-41
2024/01/26 12:11:12;;;;;;;0.73;0.73;;;10.40;99.90;;;;;;4922279;29;20509;-33
2024/01/26 12:13:39;;;;;;;2.28;1.10;;;10.40;99.90;;;;;;4919932;29;20029;-36
2024/01/26 12:16:10;;;;;;;1.42;1.20;;;10.40;99.90;;;;;;4912365;29;20056;-34
2024/01/26 12:18:36;;;;;;;1.40;1.30;;;10.40;99.90;;;;;;4885947;29;20036;-32
2024/01/26 12:21:03;;;;;;;1.45;1.35;;;10.40;99.90;;;;;;4905016;29;20032;-33
2024/01/26 12:23:29;;;;;;;1.85;1.40;;;10.50;99.90;;;;;;4890798;29;20082;-32
2024/01/26 12:25:54;;;;;;;2.33;1.20;;;10.50;99.90;;;;;;4928258;29;20436;-34
2024/01/26 12:28:20;;;;;;;1.20;1.10;;;10.50;99.90;;;;;;4909694;29;20036;-34
2024/01/26 12:30:50;;;;;;;2.25;1.17;;;10.60;99.90;;;;;;4906438;29;20781;-31
2024/01/26 12:33:16;;;;;;;1.65;1.10;;;10.60;99.90;;;;;;4920611;29;20151;-32
2024/01/26 12:35:43;;;;;;;1.20;1.10;;;10.60;99.90;;;;;;4921488;29;20453;-31
2024/01/26 12:38:10;;;;;;;1.77;1.60;;;10.70;99.90;;;;;;4885571;29;20035;-33
2024/01/26 12:40:36;;;;;;;1.40;1.30;;;10.60;99.90;;;;;;4926286;29;20031;-36
2024/01/26 12:43:03;;;;;;;1.55;1.20;;;10.60;99.90;;;;;;4908904;29;20028;-34
2024/01/26 12:45:29;;;;;;;3.55;1.55;;;10.50;99.90;;;;;;4898583;29;20036;-33
2024/01/26 12:47:55;;;;;;;1.20;1.10;;;10.50;99.90;;;;;;4904774;29;20111;-34
2024/01/26 12:50:21;;;;;;;2.60;1.38;;;10.50;99.90;;;;;;4917291;29;20701;-35